Track Целищев Тимофей

Time Latitude Longitude Accuracy (66% radius in meters) Altitude (meters) Speed (km/hour) Bearing (degrees) Battery (%) GPS flag
08:04:58 58.655648 49.680125 0 0 0 0 1 delete
08:04:57 58.655650 49.680125 0 0 0 0 1 delete
08:04:56 58.655648 49.680132 0 0 0 0 1 delete
08:04:55 58.655647 49.680142 0 0 0 0 1 delete
08:04:54 58.655642 49.680158 0 0 0 0 1 delete
08:04:53 58.655630 49.680188 0 0 0 0 1 delete
08:04:52 58.655618 49.680212 0 0 0 0 1 delete
08:04:51 58.655607 49.680238 0 0 0 0 1 delete
08:04:50 58.655603 49.680278 0 0 0 0 1 delete
08:04:49 58.655608 49.680282 0 0 0 0 1 delete
08:04:48 58.655628 49.680245 0 0 0 0 1 delete
08:04:47 58.655655 49.680173 0 0 0 0 1 delete
08:04:46 58.655685 49.680087 0 0 0 0 1 delete
08:04:45 58.655722 49.679988 0 0 0 0 1 delete
08:04:44 58.655748 49.679888 0 0 0 0 1 delete
08:04:43 58.655775 49.679798 0 0 0 0 1 delete
08:04:42 58.655802 49.679703 0 0 0 0 1 delete
08:04:41 58.655825 49.679622 0 0 0 0 1 delete
08:04:40 58.655843 49.679538 0 0 0 0 1 delete
08:04:39 58.655855 49.679447 0 0 0 0 1 delete
08:04:38 58.655845 49.679363 0 0 0 0 1 delete
08:04:37 58.655813 49.679293 0 0 0 0 1 delete
08:04:36 58.655772 49.679237 0 0 0 0 1 delete
08:04:35 58.655733 49.679185 0 0 0 0 1 delete
08:04:34 58.655695 49.679128 0 0 0 0 1 delete
08:04:33 58.655653 49.679073 0 0 0 0 1 delete
08:04:32 58.655613 49.679023 0 0 0 0 1 delete
08:04:31 58.655575 49.678973 0 0 0 0 1 delete
08:04:30 58.655532 49.678927 0 0 0 0 1 delete
08:04:29 58.655490 49.678890 0 0 0 0 1 delete
08:04:28 58.655450 49.678863 0 0 0 0 1 delete
08:04:27 58.655417 49.678865 0 0 0 0 1 delete
08:04:26 58.655380 49.678882 0 0 0 0 1 delete
08:04:25 58.655348 49.678903 0 0 0 0 1 delete
08:04:24 58.655318 49.678942 0 0 0 0 1 delete
08:04:23 58.655287 49.678972 0 0 0 0 1 delete
08:04:22 58.655252 49.678998 0 0 0 0 1 delete
08:04:21 58.655220 49.679027 0 0 0 0 1 delete
08:04:20 58.655197 49.679025 0 0 0 0 1 delete
08:04:19 58.655183 49.678993 0 0 0 0 1 delete
08:04:18 58.655175 49.678968 0 0 0 0 1 delete
08:04:17 58.655173 49.678958 0 0 0 0 1 delete
08:04:16 58.655172 49.678943 0 0 0 0 1 delete
08:04:15 58.655168 49.678943 0 0 0 0 1 delete
08:04:14 58.655163 49.678943 0 0 0 0 1 delete
08:04:13 58.655163 49.678945 0 0 0 0 1 delete
08:04:12 58.655165 49.678945 0 0 0 0 1 delete
08:04:11 58.655165 49.678945 0 0 0 0 1 delete
08:04:10 58.655165 49.678945 0 0 0 0 1 delete
08:04:09 58.655165 49.678947 0 0 0 0 1 delete